createdAt,value
2022-09-13T00:01:11.165Z,62.65
2022-09-13T00:03:37.960Z,62.69
2022-09-13T00:06:17.459Z,62.77
2022-09-13T00:08:45.007Z,62.46
2022-09-13T00:11:21.595Z,62.46
2022-09-13T00:13:48.553Z,62.86
2022-09-13T00:16:16.939Z,62.80
2022-09-13T00:18:43.950Z,62.69
2022-09-13T00:21:19.498Z,62.87
2022-09-13T00:23:48.688Z,62.64
2022-09-13T00:26:18.885Z,63.04
2022-09-13T00:28:46.359Z,63.32
2022-09-13T00:31:13.404Z,62.88
2022-09-13T00:33:40.171Z,62.83
2022-09-13T00:36:09.475Z,62.78
2022-09-13T00:38:40.287Z,63.16
2022-09-13T00:41:10.982Z,63.19
2022-09-13T00:43:56.202Z,63.34
2022-09-13T00:46:45.846Z,63.55
2022-09-13T00:49:18.756Z,63.54
2022-09-13T00:51:55.686Z,63.80
2022-09-13T00:54:26.556Z,63.49
2022-09-13T00:56:57.777Z,62.98
2022-09-13T00:59:29.961Z,62.98
2022-09-13T01:01:58.125Z,63.12
2022-09-13T01:04:29.061Z,63.37
2022-09-13T01:07:00.393Z,63.27
2022-09-13T01:09:27.929Z,63.55
2022-09-13T01:12:26.979Z,63.72
2022-09-13T01:14:55.610Z,63.58
2022-09-13T01:17:22.298Z,63.71
2022-09-13T01:19:49.274Z,63.18
2022-09-13T01:22:25.137Z,63.49
2022-09-13T01:25:07.620Z,63.67
2022-09-13T01:28:04.671Z,63.51
2022-09-13T01:31:06.484Z,63.74
2022-09-13T01:33:55.645Z,63.54
2022-09-13T01:36:50.027Z,63.51
2022-09-13T01:39:49.911Z,63.82
2022-09-13T01:42:39.622Z,63.81
2022-09-13T01:45:15.310Z,63.87
2022-09-13T01:47:41.992Z,64.06
2022-09-13T01:50:22.333Z,64.02
2022-09-13T01:53:06.352Z,64.09
2022-09-13T01:55:37.655Z,64.23
2022-09-13T01:58:16.827Z,64.20
2022-09-13T02:01:11.294Z,64.43
2022-09-13T02:03:45.095Z,64.74
2022-09-13T02:06:17.514Z,64.78
2022-09-13T02:08:49.968Z,64.50
2022-09-13T02:11:22.589Z,64.86
2022-09-13T02:14:18.241Z,64.77
2022-09-13T02:16:54.132Z,64.97
2022-09-13T02:19:29.236Z,65.16
2022-09-13T02:22:00.210Z,65.31
2022-09-13T02:24:32.485Z,64.82
2022-09-13T02:27:06.078Z,64.88
2022-09-13T02:29:33.821Z,64.99
2022-09-13T02:32:08.034Z,64.73
2022-09-13T02:34:41.392Z,64.69
2022-09-13T02:37:10.827Z,64.87
2022-09-13T02:39:44.975Z,64.88
2022-09-13T02:42:20.396Z,65.01
2022-09-13T02:44:52.519Z,65.20
2022-09-13T02:47:41.153Z,65.06
2022-09-13T02:50:10.778Z,65.12
2022-09-13T02:52:59.281Z,65.03
2022-09-13T02:55:34.954Z,65.21
2022-09-13T02:58:27.156Z,65.41
2022-09-13T03:00:56.089Z,65.46
2022-09-13T03:03:24.366Z,65.20
2022-09-13T03:05:51.083Z,65.17
2022-09-13T03:08:19.463Z,64.87
2022-09-13T03:11:16.242Z,65.18
2022-09-13T03:13:57.525Z,65.00
2022-09-13T03:16:53.214Z,65.21
2022-09-13T03:19:38.954Z,65.35
2022-09-13T03:22:50.560Z,65.13
2022-09-13T03:25:26.719Z,65.30
2022-09-13T03:28:32.907Z,65.22
2022-09-13T03:31:24.652Z,65.37
2022-09-13T03:34:19.002Z,65.41
2022-09-13T03:37:10.851Z,65.31
2022-09-13T03:39:46.508Z,65.13
2022-09-13T03:42:21.955Z,65.04
2022-09-13T03:44:53.032Z,65.48
2022-09-13T03:47:22.299Z,65.32
2022-09-13T03:49:53.257Z,65.55
2022-09-13T03:52:20.469Z,65.44
2022-09-13T03:54:47.319Z,65.49
2022-09-13T03:57:17.628Z,65.59
2022-09-13T03:59:48.228Z,65.70
2022-09-13T04:02:16.397Z,65.56
2022-09-13T04:04:44.344Z,65.65
2022-09-13T04:07:13.467Z,65.75
2022-09-13T04:09:40.280Z,65.86
2022-09-13T04:12:08.772Z,65.92
2022-09-13T04:14:35.711Z,65.81
2022-09-13T04:17:02.835Z,65.90
2022-09-13T04:19:29.757Z,66.04
2022-09-13T04:21:56.543Z,65.95
2022-09-13T04:24:27.476Z,65.62
2022-09-13T04:26:55.180Z,65.62
2022-09-13T04:29:23.631Z,65.81
2022-09-13T04:31:53.060Z,66.17
2022-09-13T04:34:21.710Z,66.05
2022-09-13T04:36:48.944Z,66.29
2022-09-13T04:39:15.739Z,66.24
2022-09-13T04:41:46.999Z,66.32
2022-09-13T04:44:14.688Z,66.18
2022-09-13T04:46:41.814Z,66.22
2022-09-13T04:49:11.565Z,66.33
2022-09-13T04:51:38.714Z,66.49
2022-09-13T04:54:05.596Z,66.46
2022-09-13T04:56:32.468Z,66.52
2022-09-13T04:58:59.268Z,66.77
2022-09-13T05:01:27.907Z,66.59
2022-09-13T05:03:55.561Z,66.88
2022-09-13T05:06:23.140Z,66.78
2022-09-13T05:08:55.711Z,66.77
2022-09-13T05:11:27.731Z,66.84
2022-09-13T05:13:57.204Z,66.84
2022-09-13T05:16:30.029Z,67.02
2022-09-13T05:18:57.445Z,67.01
2022-09-13T05:21:25.075Z,67.24
2022-09-13T05:23:54.161Z,67.12
2022-09-13T05:26:23.132Z,66.89
2022-09-13T05:28:50.409Z,66.87
2022-09-13T05:31:26.563Z,66.96
2022-09-13T05:33:59.990Z,67.10
2022-09-13T05:36:27.987Z,67.26
2022-09-13T05:39:18.767Z,67.35
2022-09-13T05:41:42.700Z,67.43
2022-09-13T05:44:13.179Z,67.50
2022-09-13T05:46:41.167Z,67.30
2022-09-13T05:49:07.958Z,67.35
2022-09-13T05:51:34.773Z,67.24
2022-09-13T05:54:01.521Z,67.62
2022-09-13T05:56:30.264Z,67.50
2022-09-13T05:58:57.156Z,67.27
2022-09-13T06:01:29.593Z,67.22
2022-09-13T06:03:58.761Z,67.37
2022-09-13T06:06:25.932Z,67.55
2022-09-13T06:08:53.905Z,67.58
2022-09-13T06:11:20.650Z,67.73
2022-09-13T06:13:47.481Z,67.71
2022-09-13T06:16:16.324Z,67.77
2022-09-13T06:18:44.055Z,67.58
2022-09-13T06:21:17.961Z,67.74
2022-09-13T06:23:51.309Z,67.70
2022-09-13T06:26:20.274Z,67.66
2022-09-13T06:28:52.562Z,67.65
2022-09-13T06:31:22.565Z,67.43
2022-09-13T06:33:49.399Z,67.30
2022-09-13T06:36:20.880Z,67.57
2022-09-13T06:38:49.210Z,67.58
2022-09-13T06:41:21.149Z,67.88
2022-09-13T06:43:52.603Z,67.61
2022-09-13T06:46:24.652Z,67.57
2022-09-13T06:48:52.940Z,67.86
2022-09-13T06:51:23.661Z,67.49
2022-09-13T06:53:57.010Z,67.79
2022-09-13T06:56:28.383Z,68.25
2022-09-13T06:59:00.477Z,68.20
2022-09-13T07:01:36.012Z,67.88
2022-09-13T07:04:04.574Z,67.61
2022-09-13T07:06:34.347Z,67.96
2022-09-13T07:09:03.190Z,67.91
2022-09-13T07:11:35.173Z,67.86
2022-09-13T07:14:02.314Z,68.07
2022-09-13T07:16:31.972Z,68.13
2022-09-13T07:19:01.261Z,67.95
2022-09-13T07:21:29.300Z,68.11
2022-09-13T07:23:56.788Z,67.79
2022-09-13T07:26:24.423Z,67.82
2022-09-13T07:28:54.397Z,67.71
2022-09-13T07:31:23.607Z,67.67
2022-09-13T07:33:56.299Z,67.62
2022-09-13T07:36:24.411Z,67.47
2022-09-13T07:38:51.733Z,67.39
2022-09-13T07:41:23.989Z,67.51
2022-09-13T07:43:52.131Z,67.59
2022-09-13T07:46:25.069Z,67.86
2022-09-13T07:48:57.623Z,67.84
2022-09-13T07:51:32.868Z,67.61
2022-09-13T07:54:01.702Z,67.50
2022-09-13T07:56:30.954Z,67.76
2022-09-13T07:59:01.099Z,67.14
2022-09-13T08:01:34.672Z,67.73
2022-09-13T08:04:07.366Z,67.62
2022-09-13T08:06:38.405Z,67.29
2022-09-13T08:09:07.074Z,67.30
2022-09-13T08:11:53.223Z,67.53
2022-09-13T08:14:22.458Z,67.39
2022-09-13T08:16:49.270Z,67.40
2022-09-13T08:19:19.066Z,67.25
2022-09-13T08:21:46.769Z,66.65
2022-09-13T08:24:23.183Z,66.07
2022-09-13T08:26:50.143Z,66.34
2022-09-13T08:29:17.738Z,66.18
2022-09-13T08:31:45.270Z,66.06
2022-09-13T08:34:15.364Z,66.11
2022-09-13T08:36:43.331Z,65.18
2022-09-13T08:39:13.996Z,65.60
2022-09-13T08:41:42.561Z,65.34
2022-09-13T08:44:18.393Z,65.61
2022-09-13T08:46:47.171Z,65.23
2022-09-13T08:49:23.082Z,64.99
2022-09-13T08:52:20.293Z,64.68
2022-09-13T08:54:47.070Z,64.60
2022-09-13T08:57:17.631Z,64.31
2022-09-13T09:00:04.362Z,64.09
2022-09-13T09:03:00.342Z,63.90
2022-09-13T09:05:30.821Z,63.59
2022-09-13T09:08:10.816Z,63.14
2022-09-13T09:10:42.580Z,62.40
2022-09-13T09:13:23.865Z,63.18
2022-09-13T09:15:58.735Z,63.37
2022-09-13T09:18:38.742Z,61.68
2022-09-13T09:21:14.064Z,61.34
2022-09-13T09:23:55.217Z,60.84
2022-09-13T09:26:23.127Z,60.91
2022-09-13T09:29:01.854Z,60.95
2022-09-13T09:31:44.082Z,60.78
2022-09-13T09:34:45.446Z,61.02
2022-09-13T09:37:24.589Z,60.87
2022-09-13T09:39:53.548Z,60.56
2022-09-13T09:42:28.864Z,60.43
2022-09-13T09:45:06.214Z,59.70
2022-09-13T09:47:48.281Z,59.61
2022-09-13T09:50:22.874Z,58.91
2022-09-13T09:52:57.024Z,59.44
2022-09-13T09:55:55.820Z,59.56
2022-09-13T09:58:43.180Z,58.04
2022-09-13T10:01:21.878Z,59.39
2022-09-13T10:04:11.493Z,58.90
2022-09-13T10:06:40.599Z,58.77
2022-09-13T10:09:19.237Z,58.69
2022-09-13T10:11:55.745Z,58.25
2022-09-13T10:14:35.096Z,57.53
2022-09-13T10:17:15.725Z,57.75
2022-09-13T10:20:02.223Z,57.22
2022-09-13T10:22:31.181Z,57.34
2022-09-13T10:25:19.212Z,56.48
2022-09-13T10:27:51.793Z,55.86
2022-09-13T10:30:35.074Z,56.58
2022-09-13T10:33:03.202Z,56.15
2022-09-13T10:35:30.518Z,55.16
2022-09-13T10:37:57.401Z,55.80
2022-09-13T10:40:39.533Z,54.90
2022-09-13T10:43:16.483Z,54.61
2022-09-13T10:45:43.537Z,55.09
2022-09-13T10:48:17.026Z,53.42
2022-09-13T10:51:06.343Z,53.23
2022-09-13T10:53:38.337Z,50.36
2022-09-13T10:56:07.440Z,52.29
2022-09-13T10:58:34.795Z,52.07
2022-09-13T11:01:04.588Z,52.10
2022-09-13T11:03:39.725Z,52.75
2022-09-13T11:06:06.700Z,51.91
2022-09-13T11:08:42.592Z,51.60
2022-09-13T11:11:31.475Z,50.12
2022-09-13T11:14:21.561Z,51.31
2022-09-13T11:17:13.116Z,48.36
2022-09-13T11:20:10.480Z,50.06
2022-09-13T11:23:02.393Z,50.59
2022-09-13T11:25:57.286Z,49.22
2022-09-13T11:28:33.061Z,49.48
2022-09-13T11:31:34.039Z,49.63
2022-09-13T11:34:09.940Z,48.76
2022-09-13T11:37:06.515Z,48.70
2022-09-13T11:40:14.420Z,48.99
2022-09-13T11:43:02.419Z,49.20
2022-09-13T11:45:40.444Z,49.05
2022-09-13T11:48:33.207Z,48.04
2022-09-13T11:51:38.565Z,48.48
2022-09-13T11:54:14.602Z,47.38
2022-09-13T11:56:55.562Z,47.70
2022-09-13T11:59:45.373Z,47.20
2022-09-13T12:02:40.952Z,47.10
2022-09-13T12:05:24.302Z,47.49
2022-09-13T12:08:09.633Z,47.69
2022-09-13T12:10:36.259Z,47.28
2022-09-13T12:13:05.178Z,46.41
2022-09-13T12:15:42.699Z,46.73
2022-09-13T12:18:37.560Z,46.54
2022-09-13T12:21:07.589Z,46.23
2022-09-13T12:23:39.123Z,46.67
2022-09-13T12:26:15.798Z,45.60
2022-09-13T12:29:00.608Z,45.02
2022-09-13T12:31:32.249Z,45.16
2022-09-13T12:34:01.460Z,45.47
2022-09-13T12:36:44.347Z,46.35
2022-09-13T12:39:34.324Z,45.88
2022-09-13T12:42:26.544Z,45.48
2022-09-13T12:45:11.652Z,46.13
2022-09-13T12:48:09.487Z,46.57
2022-09-13T12:50:44.823Z,45.14
2022-09-13T12:53:36.561Z,45.37
2022-09-13T12:56:11.151Z,46.22
2022-09-13T12:59:05.268Z,45.63
2022-09-13T13:01:33.972Z,44.52
2022-09-13T13:04:19.150Z,44.45
2022-09-13T13:06:54.700Z,44.70
2022-09-13T13:09:36.366Z,44.58
2022-09-13T13:12:04.675Z,44.60
2022-09-13T13:14:46.459Z,45.21
2022-09-13T13:17:38.298Z,44.45
2022-09-13T13:20:43.331Z,44.26
2022-09-13T13:23:36.578Z,44.44
2022-09-13T13:26:11.529Z,44.34
2022-09-13T13:28:44.563Z,44.81
2022-09-13T13:31:31.295Z,45.39
2022-09-13T13:34:08.571Z,44.65
2022-09-13T13:36:43.941Z,43.53
2022-09-13T13:39:25.898Z,44.00
2022-09-13T13:42:18.832Z,43.95
2022-09-13T13:44:45.482Z,43.90
2022-09-13T13:47:13.419Z,44.24
2022-09-13T13:49:40.483Z,43.12
2022-09-13T13:52:16.885Z,43.13
2022-09-13T13:54:47.692Z,43.33
2022-09-13T13:57:40.246Z,43.41
2022-09-13T14:00:16.239Z,42.56
2022-09-13T14:02:55.022Z,43.14
2022-09-13T14:05:42.010Z,43.18
2022-09-13T14:08:26.720Z,42.46
2022-09-13T14:11:15.370Z,42.66
2022-09-13T14:14:23.907Z,43.18
2022-09-13T14:17:22.749Z,42.86
2022-09-13T14:19:55.460Z,43.28
2022-09-13T14:22:25.420Z,43.26
2022-09-13T14:24:57.417Z,43.64
2022-09-13T14:27:30.791Z,42.96
2022-09-13T14:30:05.983Z,42.87
2022-09-13T14:32:42.609Z,43.24
2022-09-13T14:35:26.072Z,43.00
2022-09-13T14:37:53.524Z,42.74
2022-09-13T14:40:26.819Z,43.33
2022-09-13T14:42:55.807Z,42.12
2022-09-13T14:45:37.405Z,42.24
2022-09-13T14:48:37.384Z,41.85
2022-09-13T14:51:07.755Z,42.11
2022-09-13T14:53:35.737Z,42.86
2022-09-13T14:56:09.652Z,43.10
2022-09-13T14:58:45.984Z,43.57
2022-09-13T15:01:16.446Z,43.59
2022-09-13T15:03:45.109Z,43.23
2022-09-13T15:06:42.339Z,42.14
2022-09-13T15:09:11.896Z,41.77
2022-09-13T15:11:52.417Z,42.16
2022-09-13T15:14:28.279Z,42.79
2022-09-13T15:17:03.118Z,42.90
2022-09-13T15:19:35.483Z,42.12
2022-09-13T15:22:12.844Z,42.78
2022-09-13T15:24:45.482Z,41.45
2022-09-13T15:27:28.800Z,41.46
2022-09-13T15:29:58.877Z,41.54
2022-09-13T15:32:33.094Z,41.44
2022-09-13T15:35:02.268Z,42.49
2022-09-13T15:37:36.315Z,43.06
2022-09-13T15:40:14.908Z,42.89
2022-09-13T15:42:45.891Z,43.31
2022-09-13T15:45:13.211Z,43.45
2022-09-13T15:47:39.963Z,44.05
2022-09-13T15:50:07.202Z,43.80
2022-09-13T15:52:34.109Z,44.25
2022-09-13T15:55:01.159Z,43.74
2022-09-13T15:57:30.010Z,44.01
2022-09-13T16:00:02.700Z,44.06
2022-09-13T16:02:33.372Z,43.99
2022-09-13T16:05:00.182Z,44.95
2022-09-13T16:07:27.240Z,45.91
2022-09-13T16:09:54.528Z,46.43
2022-09-13T16:12:24.677Z,46.18
2022-09-13T16:14:51.710Z,45.46
2022-09-13T16:17:26.943Z,45.94
2022-09-13T16:19:54.944Z,47.05
2022-09-13T16:22:22.392Z,47.39
2022-09-13T16:24:49.331Z,47.65
2022-09-13T16:27:17.921Z,48.70
2022-09-13T16:29:45.123Z,48.35
2022-09-13T16:32:12.547Z,48.54
2022-09-13T16:34:39.628Z,49.60
2022-09-13T16:37:06.421Z,49.36
2022-09-13T16:39:33.135Z,49.34
2022-09-13T16:41:59.805Z,49.60
2022-09-13T16:44:26.552Z,49.31
2022-09-13T16:46:53.445Z,49.76
2022-09-13T16:49:20.285Z,50.40
2022-09-13T16:51:47.021Z,50.20
2022-09-13T16:54:14.120Z,50.28
2022-09-13T16:56:41.657Z,50.54
2022-09-13T16:59:08.500Z,50.66
2022-09-13T17:01:35.496Z,50.77
2022-09-13T17:04:02.582Z,50.89
2022-09-13T17:06:29.355Z,49.99
2022-09-13T17:09:02.671Z,49.72
2022-09-13T17:11:33.700Z,49.25
2022-09-13T17:14:04.254Z,49.94
2022-09-13T17:16:34.965Z,50.08
2022-09-13T17:19:05.091Z,49.89
2022-09-13T17:21:33.968Z,50.08
2022-09-13T17:24:02.031Z,50.34
2022-09-13T17:26:29.426Z,49.98
2022-09-13T17:28:56.480Z,50.67
2022-09-13T17:31:23.321Z,51.22
2022-09-13T17:33:50.807Z,51.05
2022-09-13T17:36:17.627Z,51.47
2022-09-13T17:38:45.003Z,51.33
2022-09-13T17:41:15.342Z,51.78
2022-09-13T17:43:43.451Z,51.95
2022-09-13T17:46:22.502Z,51.88
2022-09-13T17:48:53.905Z,52.42
2022-09-13T17:51:23.561Z,52.27
2022-09-13T17:53:52.508Z,52.46
2022-09-13T17:56:29.922Z,51.31
2022-09-13T17:59:05.875Z,51.22
2022-09-13T18:01:38.022Z,51.70
2022-09-13T18:04:05.269Z,51.11
2022-09-13T18:06:32.200Z,51.11
2022-09-13T18:08:59.157Z,51.69
2022-09-13T18:11:25.855Z,51.04
2022-09-13T18:13:53.370Z,51.12
2022-09-13T18:16:28.654Z,51.51
2022-09-13T18:18:56.499Z,51.53
2022-09-13T18:21:25.774Z,51.47
2022-09-13T18:23:54.800Z,51.76
2022-09-13T18:26:24.802Z,52.03
2022-09-13T18:28:57.302Z,51.89
2022-09-13T18:31:25.147Z,51.89
2022-09-13T18:33:57.899Z,51.93
2022-09-13T18:36:26.360Z,51.71
2022-09-13T18:38:53.803Z,51.94
2022-09-13T18:41:23.696Z,51.58
2022-09-13T18:43:55.358Z,52.25
2022-09-13T18:46:26.059Z,52.04
2022-09-13T18:48:55.457Z,52.00
2022-09-13T18:51:25.456Z,52.36
2022-09-13T18:53:52.504Z,52.87
2022-09-13T18:56:21.272Z,52.68
2022-09-13T18:58:48.188Z,52.64
2022-09-13T19:01:18.726Z,52.77
2022-09-13T19:03:53.430Z,52.58
2022-09-13T19:06:23.367Z,51.94
2022-09-13T19:08:52.456Z,51.87
2022-09-13T19:11:44.815Z,53.21
2022-09-13T19:14:08.266Z,52.68
2022-09-13T19:16:35.961Z,52.50
2022-09-13T19:19:03.187Z,52.53
2022-09-13T19:21:32.340Z,52.84
2022-09-13T19:24:04.058Z,52.72
2022-09-13T19:26:39.639Z,52.79
2022-09-13T19:29:09.027Z,52.97
2022-09-13T19:31:42.228Z,53.29
2022-09-13T19:34:09.479Z,52.70
2022-09-13T19:36:39.300Z,53.29
2022-09-13T19:39:07.528Z,53.24
2022-09-13T19:41:35.594Z,53.47
2022-09-13T19:44:03.974Z,53.91
2022-09-13T19:46:36.538Z,53.72
2022-09-13T19:49:04.196Z,53.64
2022-09-13T19:51:37.043Z,53.70
2022-09-13T19:54:05.466Z,53.70
2022-09-13T19:56:36.332Z,53.94
2022-09-13T19:59:03.967Z,53.92
2022-09-13T20:01:42.785Z,54.32
2022-09-13T20:04:21.669Z,53.80
2022-09-13T20:06:50.857Z,53.54
2022-09-13T20:09:20.164Z,53.74
2022-09-13T20:11:48.928Z,54.01
2022-09-13T20:14:18.512Z,54.37
2022-09-13T20:16:45.405Z,54.16
2022-09-13T20:19:40.555Z,53.99
2022-09-13T20:22:09.906Z,54.46
2022-09-13T20:24:37.150Z,54.57
2022-09-13T20:27:04.705Z,54.96
2022-09-13T20:29:32.300Z,55.42
2022-09-13T20:32:00.264Z,55.45
2022-09-13T20:34:27.409Z,55.77
2022-09-13T20:36:54.410Z,55.83
2022-09-13T20:39:21.561Z,56.12
2022-09-13T20:41:50.250Z,55.89
2022-09-13T20:44:17.285Z,55.64
2022-09-13T20:46:44.322Z,55.07
2022-09-13T20:49:11.919Z,54.80
2022-09-13T20:51:38.999Z,55.00
2022-09-13T20:54:06.679Z,55.24
2022-09-13T20:56:34.683Z,55.75
2022-09-13T20:59:03.373Z,55.42
2022-09-13T21:01:32.563Z,55.41
2022-09-13T21:04:00.388Z,55.13
2022-09-13T21:06:29.200Z,54.51
2022-09-13T21:09:00.303Z,54.43
2022-09-13T21:11:35.138Z,54.61
2022-09-13T21:14:08.687Z,55.26
2022-09-13T21:16:39.339Z,55.72
2022-09-13T21:19:07.041Z,55.12
2022-09-13T21:21:37.081Z,55.25
2022-09-13T21:24:08.758Z,55.46
2022-09-13T21:26:36.964Z,55.63
2022-09-13T21:29:03.750Z,55.36
2022-09-13T21:31:33.767Z,55.24
2022-09-13T21:34:12.466Z,55.42
2022-09-13T21:36:39.401Z,55.88
2022-09-13T21:39:06.791Z,56.06
2022-09-13T21:41:34.096Z,56.24
2022-09-13T21:44:01.415Z,56.50
2022-09-13T21:46:30.967Z,56.13
2022-09-13T21:49:00.180Z,56.41
2022-09-13T21:51:35.381Z,56.46
2022-09-13T21:54:08.303Z,56.37
2022-09-13T21:56:38.677Z,56.66
2022-09-13T21:59:08.958Z,56.03
2022-09-13T22:01:39.257Z,56.21
2022-09-13T22:04:07.646Z,56.48
2022-09-13T22:06:37.523Z,56.36
2022-09-13T22:09:07.617Z,56.26
2022-09-13T22:11:38.828Z,56.35
2022-09-13T22:14:07.353Z,56.81
2022-09-13T22:16:40.330Z,56.90
2022-09-13T22:19:13.002Z,56.74
2022-09-13T22:21:43.308Z,56.74
2022-09-13T22:24:19.577Z,57.03
2022-09-13T22:26:48.313Z,56.97
2022-09-13T22:29:15.607Z,57.00
2022-09-13T22:31:44.749Z,56.86
2022-09-13T22:34:14.308Z,57.48
2022-09-13T22:36:41.619Z,57.87
2022-09-13T22:39:11.902Z,57.96
2022-09-13T22:41:39.716Z,57.51
2022-09-13T22:44:06.964Z,58.14
2022-09-13T22:46:43.374Z,58.10
2022-09-13T22:49:18.921Z,58.11
2022-09-13T22:51:47.144Z,58.01
2022-09-13T22:54:15.673Z,58.14
2022-09-13T22:56:42.972Z,58.67
2022-09-13T22:59:19.076Z,58.18
2022-09-13T23:01:46.357Z,58.51
2022-09-13T23:04:13.989Z,58.61
2022-09-13T23:06:44.174Z,58.44
2022-09-13T23:09:18.034Z,58.71
2022-09-13T23:11:46.139Z,58.83
2022-09-13T23:14:15.761Z,59.29
2022-09-13T23:16:52.001Z,59.07
2022-09-13T23:19:21.949Z,59.46
2022-09-13T23:21:49.273Z,59.23
2022-09-13T23:24:18.718Z,58.86
2022-09-13T23:26:46.318Z,59.11
2022-09-13T23:29:17.423Z,58.83
2022-09-13T23:31:46.379Z,58.91
2022-09-13T23:34:14.513Z,59.00
2022-09-13T23:36:45.085Z,58.85
2022-09-13T23:39:16.643Z,58.31
2022-09-13T23:41:44.832Z,58.67
2022-09-13T23:44:12.255Z,58.47
2022-09-13T23:46:39.041Z,58.85
2022-09-13T23:49:05.941Z,59.15
2022-09-13T23:51:33.034Z,59.14
2022-09-13T23:54:01.416Z,59.49
2022-09-13T23:56:30.734Z,59.64
2022-09-13T23:59:00.809Z,59.59
